Time;durP1;ratioP1;P1;durP2;ratioP2;P2;SDS_P1;SDS_P2;PMS_P1;PMS_P2;Temp;Humidity;BMP_temperature;BMP_pressure;BME280_temperature;BME280_humidity;BME280_pressure;Samples;Min_cycle;Max_cycle;Signal;HPM_P1;HPM_P2
2022/05/05 00:01:36;;;;;;;5.15;3.03;;;;;;;7.94;89.96;95018.78;5031074;28;20200;-80
2022/05/05 00:04:03;;;;;;;8.00;3.53;;;;;;;7.87;90.47;95015.69;5030614;28;20236;-80
2022/05/05 00:06:30;;;;;;;5.05;3.00;;;;;;;7.81;91.10;95013.09;5030575;28;20215;-81
2022/05/05 00:08:57;;;;;;;7.15;3.70;;;;;;;7.73;91.17;95008.41;5030494;28;20200;-81
2022/05/05 00:14:31;;;;;;;5.07;3.25;;;;;;;7.70;90.76;95014.38;5019758;28;20808;-81
2022/05/05 00:17:01;;;;;;;5.63;3.42;;;;;;;7.67;90.93;95020.38;5030516;28;20223;-81
2022/05/05 00:19:29;;;;;;;9.40;3.40;;;;;;;7.69;91.16;95017.38;5030761;28;20664;-80
2022/05/05 00:21:56;;;;;;;7.20;4.07;;;;;;;7.63;90.95;95014.00;5030253;28;20292;-80
2022/05/05 00:24:24;;;;;;;6.60;3.35;;;;;;;7.72;90.99;95017.59;5030091;28;20224;-81
2022/05/05 00:26:52;;;;;;;2.85;2.28;;;;;;;7.64;90.80;95012.91;5031258;28;20200;-81
2022/05/05 00:29:19;;;;;;;5.78;2.88;;;;;;;7.51;91.27;95005.63;5034229;28;20204;-80
2022/05/05 00:31:47;;;;;;;6.10;2.95;;;;;;;7.55;92.32;95011.19;5020665;28;20729;-80
2022/05/05 00:34:15;;;;;;;6.85;4.10;;;;;;;7.48;92.94;95011.59;5034235;28;20204;-80
2022/05/05 00:36:42;;;;;;;10.30;6.00;;;;;;;7.48;92.91;95011.59;5026177;28;20209;-80
2022/05/05 00:39:11;;;;;;;15.80;8.48;;;;;;;7.48;93.10;95008.91;5029212;28;20204;-80
2022/05/05 00:41:39;;;;;;;27.15;16.35;;;;;;;7.57;93.08;95012.50;5033902;28;20231;-80
2022/05/05 00:44:07;;;;;;;38.15;21.42;;;;;;;7.58;92.89;95016.78;5043516;28;20640;-80
2022/05/05 00:46:35;;;;;;;28.60;16.35;;;;;;;7.64;92.56;95020.19;5034044;28;20232;-80
2022/05/05 00:49:02;;;;;;;14.85;9.02;;;;;;;7.58;92.36;95007.91;5033924;28;20211;-79
2022/05/05 00:51:30;;;;;;;11.38;6.47;;;;;;;7.64;92.24;95014.81;5043234;28;20235;-80
2022/05/05 00:53:57;;;;;;;7.38;4.57;;;;;;;7.55;91.14;95009.28;5037039;28;20224;-79
2022/05/05 00:56:26;;;;;;;6.75;3.90;;;;;;;7.51;91.04;95011.00;5033491;28;20290;-80
2022/05/05 00:58:56;;;;;;;5.95;3.45;;;;;;;7.48;90.92;95007.00;5033680;28;20215;-80
2022/05/05 01:01:24;;;;;;;11.75;3.65;;;;;;;7.51;90.35;95011.00;5033879;28;20188;-80
2022/05/05 01:03:51;;;;;;;9.27;3.28;;;;;;;7.50;90.27;95017.50;5033465;28;20319;-80
2022/05/05 01:06:18;;;;;;;6.90;3.17;;;;;;;7.47;90.29;95010.00;5033426;28;20606;-80
2022/05/05 01:08:47;;;;;;;5.55;2.95;;;;;;;7.41;90.15;95000.41;5033668;28;20208;-80
2022/05/05 01:11:14;;;;;;;5.05;2.67;;;;;;;7.36;90.02;95008.59;5032823;28;20278;-80
2022/05/05 01:13:42;;;;;;;6.05;2.97;;;;;;;7.32;90.10;95012.97;5033091;28;20200;-80
2022/05/05 01:16:10;;;;;;;6.15;3.25;;;;;;;7.34;90.08;95016.16;5033421;28;20259;-80
2022/05/05 01:18:38;;;;;;;6.65;3.25;;;;;;;7.23;90.69;95014.75;5033625;28;20235;-80
2022/05/05 01:21:06;;;;;;;6.25;2.88;;;;;;;7.34;90.30;95005.41;5033066;28;20207;-80
2022/05/05 01:23:34;;;;;;;10.13;4.07;;;;;;;7.34;89.84;95010.78;5033030;28;20247;-79
2022/05/05 01:28:46;;;;;;;3.90;2.65;;;;;;;7.31;90.16;95017.56;5013106;28;20193;-80
2022/05/05 01:31:13;;;;;;;7.57;3.33;;;;;;;7.37;90.23;95018.28;5028695;28;20225;-79
2022/05/05 01:33:40;;;;;;;4.93;3.05;;;;;;;7.44;90.23;95021.38;5032780;28;20560;-79
2022/05/05 01:36:08;;;;;;;5.10;2.72;;;;;;;7.41;90.20;95016.56;5033005;28;20283;-81
2022/05/05 01:38:40;;;;;;;4.72;2.80;;;;;;;7.43;90.13;95014.38;5032120;28;20197;-80
2022/05/05 01:41:09;;;;;;;5.28;2.53;;;;;;;7.37;90.14;95020.97;5032759;28;20204;-79
2022/05/05 01:43:37;;;;;;;4.68;2.75;;;;;;;7.31;89.98;95017.56;5032565;28;20239;-80
2022/05/05 01:46:05;;;;;;;4.93;2.80;;;;;;;7.25;89.87;95023.31;5033089;28;20284;-79
2022/05/05 01:48:33;;;;;;;5.47;3.42;;;;;;;7.18;89.71;95028.31;5032746;28;20223;-79
2022/05/05 01:51:01;;;;;;;5.60;2.80;;;;;;;7.23;89.14;95025.53;5032563;28;20227;-80
2022/05/05 01:53:28;;;;;;;4.85;3.20;;;;;;;7.26;88.95;95025.72;5032366;28;20220;-80
2022/05/05 01:55:57;;;;;;;9.15;3.47;;;;;;;7.25;88.53;95023.31;5032498;28;20208;-80
2022/05/05 01:58:24;;;;;;;6.05;2.85;;;;;;;7.23;88.64;95029.03;5032227;28;20204;-79
2022/05/05 02:00:50;;;;;;;5.80;3.42;;;;;;;7.17;88.99;95026.72;5019551;28;20291;-80
2022/05/05 02:03:18;;;;;;;5.97;3.45;;;;;;;7.05;88.94;95038.75;5031301;28;20255;-81
2022/05/05 02:05:46;;;;;;;10.40;3.72;;;;;;;7.10;89.17;95033.28;5032338;28;20208;-79
2022/05/05 02:08:14;;;;;;;8.07;3.67;;;;;;;7.16;88.80;95027.81;5032120;28;20200;-80
2022/05/05 02:10:41;;;;;;;6.90;3.30;;;;;;;7.16;88.45;95036.69;5032196;28;20226;-79
2022/05/05 02:13:09;;;;;;;6.40;3.30;;;;;;;7.09;88.96;95031.69;5031556;28;20211;-80
2022/05/05 02:15:37;;;;;;;9.85;4.38;;;;;;;7.03;89.66;95035.56;5031431;28;20660;-80
2022/05/05 02:18:09;;;;;;;7.32;3.58;;;;;;;7.10;88.88;95037.88;5031428;28;20197;-80
2022/05/05 02:20:36;;;;;;;6.82;3.20;;;;;;;6.99;88.38;95036.44;5032133;28;20236;-79
2022/05/05 02:23:02;;;;;;;5.57;3.40;;;;;;;6.97;88.56;95039.41;5032029;28;20238;-79
2022/05/05 02:25:29;;;;;;;4.80;2.92;;;;;;;6.97;88.61;95039.41;5031810;28;20204;-79
2022/05/05 02:27:56;;;;;;;8.93;3.90;;;;;;;6.99;88.82;95037.22;5031671;28;20594;-80
2022/05/05 02:30:26;;;;;;;7.05;3.65;;;;;;;7.02;88.82;95042.03;5031530;28;20233;-80
2022/05/05 02:32:53;;;;;;;8.52;4.15;;;;;;;6.98;88.85;95049.09;5031405;28;20678;-79
2022/05/05 02:35:20;;;;;;;7.20;3.65;;;;;;;7.00;89.25;95044.22;5031829;28;20688;-80
2022/05/05 02:40:33;;;;;;;5.18;3.20;;;;;;;7.16;89.48;95052.84;5031662;28;20639;-80
2022/05/05 02:43:01;;;;;;;8.07;3.90;;;;;;;7.03;89.93;95046.31;5021117;28;20315;-80
2022/05/05 02:45:30;;;;;;;6.03;3.67;;;;;;;7.09;90.43;95047.84;5037304;28;20243;-80
2022/05/05 02:47:57;;;;;;;13.10;4.30;;;;;;;7.20;90.95;95053.06;5031567;28;20211;-80
2022/05/05 02:50:24;;;;;;;10.05;5.03;;;;;;;7.25;91.41;95045.66;5031521;28;20688;-80
2022/05/05 02:52:51;;;;;;;6.63;4.05;;;;;;;7.29;91.34;95051.28;5031586;28;20303;-80
2022/05/05 02:55:17;;;;;;;7.90;4.85;;;;;;;7.38;91.07;95055.69;5031742;28;20219;-80
2022/05/05 02:57:44;;;;;;;11.38;6.25;;;;;;;7.46;91.17;95051.53;5031453;28;20690;-80
2022/05/05 03:00:14;;;;;;;12.10;5.43;;;;;;;7.39;91.98;95062.69;5031201;28;20204;-79
2022/05/05 03:02:44;;;;;;;18.95;6.13;;;;;;;7.45;92.08;95068.78;5030892;28;20592;-79
2022/05/05 03:05:13;;;;;;;19.65;6.50;;;;;;;7.44;92.68;95064.50;5031109;28;20205;-80
2022/05/05 03:07:41;;;;;;;13.35;6.18;;;;;;;7.29;93.04;95072.84;5031293;28;20208;-79
2022/05/05 03:10:09;;;;;;;9.10;4.97;;;;;;;7.18;94.02;95072.22;5031359;28;20200;-78
2022/05/05 03:12:36;;;;;;;14.07;5.65;;;;;;;7.09;94.61;95074.78;5030917;28;20207;-79
2022/05/05 03:15:03;;;;;;;14.48;6.22;;;;;;;7.17;95.03;95083.28;5031134;28;20574;-79
2022/05/05 03:17:31;;;;;;;12.63;6.68;;;;;;;7.27;94.77;95086.59;5031047;28;20203;-79
2022/05/05 03:19:59;;;;;;;15.23;7.13;;;;;;;7.47;94.92;95085.47;5031273;28;20201;-79
2022/05/05 03:22:26;;;;;;;13.25;5.88;;;;;;;7.51;94.25;95091.88;5031024;28;20232;-78
2022/05/05 03:24:53;;;;;;;12.13;6.78;;;;;;;7.54;94.36;95085.06;5030856;28;20243;-79
2022/05/05 03:27:20;;;;;;;12.40;5.65;;;;;;;7.67;94.24;95084.28;5030953;28;20200;-79
2022/05/05 03:29:47;;;;;;;12.55;5.30;;;;;;;7.82;93.92;95086.69;5030659;28;20231;-79
2022/05/05 03:32:15;;;;;;;12.68;5.50;;;;;;;7.97;93.05;95082.91;5030515;28;20712;-79
2022/05/05 03:34:42;;;;;;;11.68;6.28;;;;;;;8.00;92.60;95080.44;5030643;28;20695;-79
2022/05/05 03:37:10;;;;;;;13.90;6.80;;;;;;;8.14;92.04;95075.81;5023308;28;20212;-79
2022/05/05 03:39:37;;;;;;;17.30;7.15;;;;;;;8.06;92.00;95081.13;5024317;28;20207;-79
2022/05/05 03:42:04;;;;;;;16.88;7.18;;;;;;;8.02;92.28;95080.13;5030770;28;20844;-80
2022/05/05 03:44:31;;;;;;;18.40;6.10;;;;;;;7.90;92.96;95087.94;5039510;28;20749;-80
2022/05/05 03:46:59;;;;;;;24.85;7.90;;;;;;;8.11;93.22;95078.31;5028643;28;20212;-79
2022/05/05 03:49:26;;;;;;;21.52;7.28;;;;;;;8.17;92.69;95086.03;5030285;28;20228;-79
2022/05/05 03:51:54;;;;;;;18.67;7.78;;;;;;;8.27;92.18;95090.41;5030676;28;20691;-79
2022/05/05 03:54:23;;;;;;;21.85;9.00;;;;;;;8.45;92.38;95094.94;5017770;28;20431;-75
2022/05/05 03:56:50;;;;;;;19.67;7.30;;;;;;;8.69;91.41;95088.47;5030331;28;20622;-77
2022/05/05 03:59:18;;;;;;;18.05;6.95;;;;;;;8.64;90.40;95097.47;5031036;28;20200;-84
2022/05/05 04:01:45;;;;;;;15.35;7.18;;;;;;;8.63;90.50;95082.38;5031965;28;20224;-76
2022/05/05 04:04:12;;;;;;;25.00;11.73;;;;;;;8.73;90.01;95089.47;5033857;28;20232;-76
2022/05/05 04:06:39;;;;;;;16.27;7.07;;;;;;;8.75;90.03;95095.34;5034221;28;20287;-76
2022/05/05 04:09:06;;;;;;;11.73;6.30;;;;;;;8.53;89.96;95099.59;5033782;28;20220;-76
2022/05/05 04:11:34;;;;;;;15.15;5.85;;;;;;;8.40;90.53;95102.31;5033941;28;20258;-76
2022/05/05 04:14:03;;;;;;;12.90;6.38;;;;;;;8.08;91.75;95106.69;5034233;28;20287;-76
2022/05/05 04:16:31;;;;;;;9.07;5.50;;;;;;;8.12;91.93;95113.09;5033628;28;20200;-76
2022/05/05 04:18:58;;;;;;;15.15;6.55;;;;;;;8.20;91.99;95115.09;5033772;28;20351;-75
2022/05/05 04:21:24;;;;;;;14.27;6.15;;;;;;;8.02;92.02;95116.00;5033359;28;20691;-76
2022/05/05 04:23:51;;;;;;;14.95;7.10;;;;;;;8.35;91.45;95122.09;5031382;28;20770;-76
2022/05/05 04:26:19;;;;;;;17.27;7.50;;;;;;;8.46;90.68;95128.13;5032619;28;20212;-77
2022/05/05 04:28:49;;;;;;;14.70;6.90;;;;;;;8.30;91.29;95124.91;5032971;28;20224;-76
2022/05/05 04:31:18;;;;;;;14.93;7.25;;;;;;;8.76;91.15;95132.06;5033743;28;20242;-75
2022/05/05 04:33:45;;;;;;;16.40;7.55;;;;;;;8.96;90.19;95128.91;5032911;28;20208;-76
2022/05/05 04:36:14;;;;;;;16.80;8.63;;;;;;;9.22;89.98;95127.22;5028888;28;20564;-76
2022/05/05 04:38:41;;;;;;;18.05;8.80;;;;;;;9.45;89.28;95132.63;5024781;28;20674;-77
2022/05/05 04:41:08;;;;;;;19.10;8.07;;;;;;;8.69;88.88;95142.47;5033791;28;20219;-77
2022/05/05 04:43:35;;;;;;;21.75;8.40;;;;;;;8.85;90.28;95131.06;5041216;28;20228;-77
2022/05/05 04:46:03;;;;;;;16.65;8.43;;;;;;;9.21;89.56;95122.91;5034657;28;20203;-76
2022/05/05 04:48:30;;;;;;;17.17;8.27;;;;;;;9.53;89.29;95113.78;5032900;28;20224;-76
2022/05/05 04:50:57;;;;;;;19.80;10.10;;;;;;;9.79;88.09;95113.91;5032553;28;20228;-76
2022/05/05 04:53:24;;;;;;;22.45;9.10;;;;;;;9.90;87.71;95117.94;5033428;28;20684;-77
2022/05/05 04:55:51;;;;;;;24.83;9.63;;;;;;;9.92;86.64;95118.44;5033588;28;20200;-76
2022/05/05 04:58:18;;;;;;;22.33;9.55;;;;;;;9.79;86.08;95126.66;5033489;28;20667;-76
2022/05/05 05:00:45;;;;;;;29.73;12.05;;;;;;;9.74;87.21;95124.88;5045984;28;20596;-76
2022/05/05 05:05:55;;;;;;;21.63;8.20;;;;;;;9.84;86.22;95121.88;5020197;28;20283;-76
2022/05/05 05:08:22;;;;;;;23.48;9.35;;;;;;;9.51;87.21;95115.97;5033516;28;20211;-77
2022/05/05 05:10:48;;;;;;;24.98;10.18;;;;;;;9.58;88.12;95110.13;5032872;28;20204;-77
2022/05/05 05:13:15;;;;;;;21.80;8.98;;;;;;;9.54;87.66;95117.28;5031778;28;20215;-77
2022/05/05 05:15:42;;;;;;;21.55;9.13;;;;;;;9.68;87.81;95122.63;5033158;28;20231;-77
2022/05/05 05:18:09;;;;;;;19.52;9.00;;;;;;;9.43;88.37;95129.47;5032880;28;20203;-77
2022/05/05 05:20:37;;;;;;;19.55;8.32;;;;;;;9.62;88.74;95127.34;5033017;28;20220;-76
2022/05/05 05:23:04;;;;;;;19.75;9.07;;;;;;;9.95;88.10;95131.38;5032475;28;20200;-76
2022/05/05 05:25:31;;;;;;;21.25;10.23;;;;;;;9.41;88.03;95131.66;5032838;28;20236;-77
2022/05/05 05:27:58;;;;;;;18.33;9.48;;;;;;;9.57;88.57;95135.56;5033323;28;20263;-76
2022/05/05 05:30:25;;;;;;;25.40;11.18;;;;;;;9.65;89.20;95129.44;5032764;28;20447;-77
2022/05/05 05:32:52;;;;;;;26.50;10.43;;;;;;;10.08;87.01;95123.44;5032785;28;20574;-77
2022/05/05 05:35:19;;;;;;;22.17;10.90;;;;;;;10.42;85.76;95129.00;5032394;28;20207;-76
2022/05/05 05:37:48;;;;;;;25.02;11.27;;;;;;;10.28;85.27;95139.16;5019659;28;20283;-75
2022/05/05 05:40:15;;;;;;;31.73;10.95;;;;;;;10.28;85.74;95139.16;5030786;28;20227;-77
2022/05/05 05:42:42;;;;;;;26.15;11.10;;;;;;;10.24;85.78;95144.44;5033543;28;20208;-74
2022/05/05 05:45:10;;;;;;;24.58;9.63;;;;;;;9.79;86.70;95143.69;5041542;28;20240;-76
2022/05/05 05:47:36;;;;;;;19.00;9.45;;;;;;;9.57;87.42;95146.38;5031939;28;20220;-74
2022/05/05 05:50:04;;;;;;;28.90;12.50;;;;;;;9.64;88.72;95146.75;5032360;28;20224;-77
2022/05/05 05:52:31;;;;;;;27.38;11.00;;;;;;;9.94;87.30;95143.28;5031678;28;20691;-74
2022/05/05 05:55:00;;;;;;;24.02;10.05;;;;;;;9.96;87.23;95149.19;5031923;28;20204;-76
2022/05/05 05:57:26;;;;;;;24.63;9.63;;;;;;;10.37;85.50;95148.13;5031577;28;20204;-75
2022/05/05 05:59:53;;;;;;;33.33;18.55;;;;;;;10.52;84.97;95142.25;5031982;28;20224;-74
2022/05/05 06:05:06;;;;;;;32.00;11.50;;;;;;;11.44;83.03;95139.53;5045400;28;20237;-77
2022/05/05 06:07:33;;;;;;;22.98;11.73;;;;;;;11.49;82.29;95132.00;5031958;28;20361;-74
2022/05/05 06:10:01;;;;;;;23.45;10.77;;;;;;;11.33;82.13;95139.84;5031362;28;20200;-74
2022/05/05 06:12:28;;;;;;;24.48;11.27;;;;;;;11.09;82.04;95136.00;5031824;28;20671;-74
2022/05/05 06:14:55;;;;;;;29.90;13.35;;;;;;;10.85;82.90;95147.28;5032156;28;20204;-72
2022/05/05 06:17:22;;;;;;;24.63;11.70;;;;;;;11.43;81.75;95143.34;5031697;28;20216;-73
2022/05/05 06:19:49;;;;;;;30.92;14.32;;;;;;;10.89;82.43;95143.66;5031503;28;20220;-72
2022/05/05 06:22:16;;;;;;;54.70;25.65;;;;;;;10.56;83.67;95145.94;5031584;28;20204;-73
2022/05/05 06:24:42;;;;;;;24.15;11.93;;;;;;;10.63;84.32;95146.31;5030682;28;20672;-73
2022/05/05 06:27:11;;;;;;;30.33;13.43;;;;;;;10.85;83.86;95141.88;5031819;28;20224;-73
2022/05/05 06:29:38;;;;;;;26.92;11.55;;;;;;;11.57;81.63;95131.22;5031094;28;20670;-74
2022/05/05 06:32:06;;;;;;;22.88;10.15;;;;;;;12.20;78.42;95137.00;5028770;28;20204;-74
2022/05/05 06:34:33;;;;;;;28.58;11.50;;;;;;;11.86;77.90;95141.41;5030954;28;20204;-73
2022/05/05 06:37:00;;;;;;;26.80;13.80;;;;;;;11.57;78.68;95150.22;5029542;28;20206;-72
2022/05/05 06:39:27;;;;;;;33.95;13.32;;;;;;;11.50;78.96;95149.09;5030922;28;20204;-74
2022/05/05 06:41:55;;;;;;;26.05;12.55;;;;;;;11.73;78.95;95150.50;5031328;28;20200;-74
2022/05/05 06:44:23;;;;;;;26.77;12.68;;;;;;;11.39;81.51;95135.84;5041051;28;20275;-74
2022/05/05 06:46:50;;;;;;;32.05;13.43;;;;;;;12.48;78.59;95140.88;5031449;28;20270;-75
2022/05/05 06:49:18;;;;;;;26.23;12.15;;;;;;;12.61;77.37;95142.56;5030565;28;20282;-73
2022/05/05 06:51:45;;;;;;;30.58;13.63;;;;;;;13.31;75.41;95137.53;5030862;28;20213;-74
2022/05/05 06:54:12;;;;;;;22.67;12.40;;;;;;;13.51;73.04;95134.03;5029844;28;20200;-72
2022/05/05 06:56:39;;;;;;;27.88;13.30;;;;;;;14.45;69.21;95134.97;5029152;28;20283;-74
2022/05/05 06:59:05;;;;;;;33.50;14.15;;;;;;;15.20;66.87;95129.13;5031084;28;20227;-75
2022/05/05 07:07:02;;;;;;;28.23;12.98;;;;;;;18.13;58.49;95117.63;5025658;28;20288;-74
2022/05/05 07:12:14;;;;;;;33.22;17.73;;;;;;;18.92;54.45;95119.78;5024033;28;20570;-75
2022/05/05 07:14:41;;;;;;;27.02;17.40;;;;;;;19.24;53.54;95120.25;5030972;28;20208;-78
2022/05/05 07:17:09;;;;;;;29.60;18.20;;;;;;;20.79;50.16;95109.50;5030605;28;20667;-79
2022/05/05 07:19:36;;;;;;;24.70;16.33;;;;;;;20.92;49.13;95119.03;5029850;28;20316;-78
2022/05/05 07:22:03;;;;;;;28.80;17.70;;;;;;;20.41;50.03;95111.53;5030032;28;20690;-77
2022/05/05 07:24:31;;;;;;;25.85;16.33;;;;;;;19.86;52.50;95111.28;5030713;28;20231;-75
2022/05/05 07:26:58;;;;;;;31.20;17.63;;;;;;;18.97;53.64;95123.00;5030129;28;20228;-73
2022/05/05 07:29:25;;;;;;;31.15;16.88;;;;;;;19.30;54.26;95124.25;5031062;28;20211;-73
2022/05/05 07:31:52;;;;;;;31.88;18.60;;;;;;;18.11;56.26;95119.94;5030143;28;20655;-77
2022/05/05 07:34:20;;;;;;;28.92;17.33;;;;;;;18.31;54.97;95129.69;5030635;28;20614;-78
2022/05/05 07:36:47;;;;;;;28.05;16.80;;;;;;;18.31;54.46;95128.94;5031761;28;20200;-81
2022/05/05 07:39:14;;;;;;;26.25;16.30;;;;;;;19.65;52.92;95119.28;5034451;28;20200;-74
2022/05/05 07:41:41;;;;;;;25.35;15.13;;;;;;;19.76;51.67;95109.22;5033819;28;20231;-78
2022/05/05 07:44:09;;;;;;;28.52;16.17;;;;;;;20.10;51.98;95101.72;5044388;28;20242;-76
2022/05/05 07:46:36;;;;;;;25.52;15.20;;;;;;;20.40;51.60;95112.69;5034197;28;20232;-75
2022/05/05 07:49:05;;;;;;;24.92;15.55;;;;;;;19.07;53.44;95122.38;5033958;28;20256;-75
2022/05/05 07:51:34;;;;;;;23.77;15.45;;;;;;;19.72;52.27;95119.38;5033980;28;20204;-73
2022/05/05 07:56:45;;;;;;;22.88;15.18;;;;;;;18.83;52.68;95122.78;5034009;28;20520;-73
2022/05/05 07:59:13;;;;;;;21.27;14.10;;;;;;;18.78;53.33;95131.31;5034222;28;20223;-74
2022/05/05 08:01:39;;;;;;;19.95;14.35;;;;;;;18.48;54.71;95129.22;5034061;28;20550;-73
2022/05/05 08:04:07;;;;;;;26.08;15.00;;;;;;;18.16;54.25;95133.34;5021310;28;20204;-73
2022/05/05 08:06:35;;;;;;;22.48;13.75;;;;;;;17.47;56.45;95135.06;5033957;28;20715;-72
2022/05/05 08:09:02;;;;;;;21.45;12.70;;;;;;;17.83;54.71;95144.03;5033516;28;20591;-75
2022/05/05 08:11:29;;;;;;;20.40;12.98;;;;;;;18.92;52.84;95131.56;5033495;28;20205;-74
2022/05/05 08:13:56;;;;;;;20.98;12.30;;;;;;;19.37;52.66;95124.38;5034352;28;20211;-75
2022/05/05 08:16:24;;;;;;;22.90;12.23;;;;;;;19.48;50.93;95126.09;5034094;28;20300;-71
2022/05/05 08:18:51;;;;;;;20.85;12.32;;;;;;;19.43;52.92;95128.38;5034119;28;20714;-74
2022/05/05 08:21:18;;;;;;;20.00;12.98;;;;;;;19.11;52.25;95123.22;5033465;28;20200;-74
2022/05/05 08:23:46;;;;;;;20.08;12.57;;;;;;;19.79;52.51;95130.47;5033983;28;20549;-74
2022/05/05 08:28:57;;;;;;;17.60;11.40;;;;;;;20.24;49.31;95120.34;5033228;28;20219;-72
2022/05/05 08:31:24;;;;;;;16.08;10.77;;;;;;;20.51;48.31;95119.09;5033686;28;20261;-73
2022/05/05 08:33:51;;;;;;;18.38;11.30;;;;;;;20.65;47.63;95121.19;5033722;28;20662;-74
2022/05/05 08:36:18;;;;;;;19.77;11.75;;;;;;;19.93;48.95;95118.06;5028798;28;20208;-71
2022/05/05 08:38:49;;;;;;;19.20;12.00;;;;;;;18.92;51.70;95126.06;5024732;28;20207;-76
2022/05/05 08:41:16;;;;;;;18.38;12.30;;;;;;;19.54;52.01;95126.63;5033815;28;20231;-76
2022/05/05 08:43:43;;;;;;;17.23;10.60;;;;;;;19.73;49.54;95122.91;5041642;28;20227;-76
2022/05/05 08:46:13;;;;;;;16.05;9.52;;;;;;;20.03;48.40;95117.38;5034095;28;20583;-76
2022/05/05 08:48:42;;;;;;;15.82;10.57;;;;;;;19.13;49.53;95114.63;5032790;28;20247;-76
2022/05/05 08:51:18;;;;;;;15.23;10.13;;;;;;;18.88;50.65;95119.72;5020592;28;20201;-76
2022/05/05 08:53:53;;;;;;;13.65;8.65;;;;;;;19.44;48.11;95116.22;5046633;28;20203;-76
2022/05/05 08:56:20;;;;;;;16.92;8.88;;;;;;;19.71;48.93;95115.03;5033316;28;20196;-76
2022/05/05 08:58:47;;;;;;;17.88;8.15;;;;;;;19.79;46.47;95108.47;5032613;28;20224;-75
2022/05/05 09:01:14;;;;;;;11.63;7.78;;;;;;;19.84;47.58;95116.38;5033015;28;20196;-73
2022/05/05 09:03:41;;;;;;;12.57;8.32;;;;;;;19.60;48.33;95116.84;5033239;28;20196;-74
2022/05/05 09:06:08;;;;;;;10.25;7.85;;;;;;;20.11;46.17;95108.03;5033127;28;20231;-74
2022/05/05 09:08:35;;;;;;;12.63;8.40;;;;;;;20.06;47.99;95113.88;5032585;28;20698;-76
2022/05/05 09:11:05;;;;;;;11.68;7.78;;;;;;;19.26;48.51;95106.97;5033077;28;20204;-76
2022/05/05 09:13:34;;;;;;;14.45;8.55;;;;;;;19.53;48.45;95111.28;5031883;28;20200;-76
2022/05/05 09:16:02;;;;;;;16.42;8.20;;;;;;;19.53;47.92;95116.78;5032373;28;20263;-77
2022/05/05 09:18:31;;;;;;;13.52;8.27;;;;;;;19.75;47.74;95107.63;5032620;28;20575;-76
2022/05/05 09:21:01;;;;;;;13.75;8.77;;;;;;;20.01;47.79;95105.97;5033338;28;20204;-76
2022/05/05 09:23:34;;;;;;;12.88;7.93;;;;;;;19.84;47.40;95102.63;5031613;28;20204;-75
2022/05/05 09:26:04;;;;;;;13.95;8.13;;;;;;;19.74;47.57;95095.03;5030828;28;20750;-77
2022/05/05 09:28:32;;;;;;;11.38;7.35;;;;;;;19.87;47.19;95099.13;5017487;28;20201;-76
2022/05/05 09:31:04;;;;;;;10.82;6.93;;;;;;;19.88;45.60;95100.72;5031373;28;20286;-78
2022/05/05 09:33:43;;;;;;;11.35;6.40;;;;;;;20.12;45.76;95090.34;5032269;28;20240;-74
2022/05/05 09:36:12;;;;;;;11.30;6.55;;;;;;;20.42;44.07;95096.59;5029273;28;20275;-76
2022/05/05 09:38:53;;;;;;;10.05;6.13;;;;;;;21.19;44.23;95087.38;5023492;28;20208;-76
2022/05/05 09:41:23;;;;;;;10.25;5.75;;;;;;;21.80;42.38;95093.22;5045508;28;20602;-76
2022/05/05 09:43:51;;;;;;;10.70;5.88;;;;;;;22.07;40.51;95091.00;5042135;28;20240;-75
2022/05/05 09:46:32;;;;;;;10.18;5.88;;;;;;;22.06;42.87;95081.13;5018496;28;20231;-77
2022/05/05 09:49:07;;;;;;;9.13;5.68;;;;;;;22.20;41.83;95081.16;5032229;28;20231;-76
2022/05/05 09:51:36;;;;;;;10.45;5.00;;;;;;;22.69;42.36;95081.22;5032143;28;20196;-75
2022/05/05 09:59:40;;;;;;;6.43;4.30;;;;;;;21.02;41.62;95082.53;5020705;28;20231;-77
2022/05/05 10:02:15;;;;;;;5.78;4.38;;;;;;;20.30;41.65;95072.09;5031819;28;20197;-76
2022/05/05 10:04:49;;;;;;;5.95;3.45;;;;;;;20.87;40.96;95073.38;5032538;28;20227;-77
2022/05/05 10:07:18;;;;;;;5.82;3.40;;;;;;;21.71;41.72;95077.06;5050835;28;20320;-77
2022/05/05 10:09:47;;;;;;;4.85;3.28;;;;;;;21.63;38.33;95075.41;5039219;28;20706;-76
2022/05/05 10:12:15;;;;;;;5.90;3.10;;;;;;;21.33;39.71;95077.63;5038056;28;20210;-76
2022/05/05 10:14:43;;;;;;;4.80;2.53;;;;;;;20.77;37.32;95074.09;5039004;28;20207;-78
2022/05/05 10:17:12;;;;;;;2.50;2.30;;;;;;;20.88;38.56;95080.47;5018595;28;20230;-76
2022/05/05 10:19:39;;;;;;;4.38;2.80;;;;;;;20.79;38.11;95077.25;5031639;28;20215;-79
2022/05/05 10:22:12;;;;;;;3.90;2.50;;;;;;;20.48;40.25;95078.56;5031377;28;20208;-77
2022/05/05 10:24:44;;;;;;;4.35;2.65;;;;;;;20.82;40.40;95081.19;5031517;28;20232;-77
2022/05/05 10:27:12;;;;;;;3.55;2.28;;;;;;;21.06;40.91;95077.03;5031722;28;20240;-78
2022/05/05 10:29:41;;;;;;;3.20;2.50;;;;;;;21.38;39.71;95080.03;5031650;28;20208;-76
2022/05/05 10:32:10;;;;;;;5.63;3.15;;;;;;;20.85;39.51;95077.69;5031580;28;20208;-77
2022/05/05 10:34:38;;;;;;;2.63;2.40;;;;;;;20.64;38.67;95088.53;5031460;28;20204;-77
2022/05/05 10:37:07;;;;;;;3.67;2.42;;;;;;;21.13;39.00;95077.88;5020382;28;20245;-77
2022/05/05 10:39:45;;;;;;;2.50;2.10;;;;;;;21.23;37.22;95074.44;5029665;28;20615;-71
2022/05/05 10:42:33;;;;;;;2.30;1.88;;;;;;;21.08;38.77;95069.19;5031431;28;20193;-77
2022/05/05 10:45:08;;;;;;;5.35;2.35;;;;;;;21.20;38.61;95069.69;5040969;28;20267;-79
2022/05/05 10:48:16;;;;;;;3.05;2.40;;;;;;;21.38;39.80;95069.00;5030816;28;20196;-78
2022/05/05 10:50:50;;;;;;;2.45;2.20;;;;;;;20.87;39.51;95078.09;5045018;28;20766;-75
2022/05/05 10:53:29;;;;;;;3.28;1.98;;;;;;;21.02;38.27;95073.50;5030945;28;20283;-76
2022/05/05 10:55:57;;;;;;;2.13;1.70;;;;;;;20.35;39.29;95080.00;5030239;28;20196;-76
2022/05/05 10:58:57;;;;;;;4.20;2.10;;;;;;;20.74;39.15;95085.09;5031486;28;20220;-75
2022/05/05 11:01:27;;;;;;;3.10;2.40;;;;;;;21.09;40.22;95077.06;5020963;28;20204;-78
2022/05/05 11:04:30;;;;;;;4.18;2.40;;;;;;;20.93;39.89;95079.31;5030997;28;20204;-77
2022/05/05 11:07:30;;;;;;;3.47;2.10;;;;;;;20.85;41.18;95088.72;5030971;28;20298;-76
2022/05/05 11:09:58;;;;;;;4.07;2.42;;;;;;;21.23;40.09;95079.94;5032226;28;20188;-77
2022/05/05 11:12:32;;;;;;;2.72;1.95;;;;;;;21.64;37.93;95075.03;5043162;28;20204;-74
2022/05/05 11:23:42;;;;;;;2.47;1.63;;;;;;;24.33;34.80;95056.72;5030063;28;20257;-77
2022/05/05 11:26:10;;;;;;;4.95;2.20;;;;;;;23.42;35.01;95066.19;5030423;28;20259;-77
2022/05/05 11:28:37;;;;;;;1.88;1.70;;;;;;;23.35;32.28;95072.53;5031311;28;20286;-77
2022/05/05 11:31:04;;;;;;;3.05;1.80;;;;;;;23.89;32.80;95065.66;5030833;28;20262;-76
2022/05/05 11:33:35;;;;;;;3.40;2.20;;;;;;;24.34;33.39;95065.81;5030107;28;20196;-75
2022/05/05 11:36:02;;;;;;;2.50;1.92;;;;;;;24.01;32.83;95065.19;5030280;28;20282;-76
2022/05/05 11:38:29;;;;;;;2.58;1.80;;;;;;;23.27;34.72;95063.44;5030566;28;20299;-77
2022/05/05 11:41:02;;;;;;;2.88;1.90;;;;;;;22.52;34.75;95073.75;5031060;28;20610;-77
2022/05/05 11:46:16;;;;;;;5.15;1.83;;;;;;;21.63;37.54;95075.41;5029965;28;20235;-73
2022/05/05 11:48:44;;;;;;;2.00;1.60;;;;;;;21.98;37.15;95070.06;5029909;28;20711;-76
2022/05/05 11:51:11;;;;;;;3.28;2.03;;;;;;;22.32;36.45;95062.25;5030106;28;20262;-77
2022/05/05 11:53:38;;;;;;;4.00;2.03;;;;;;;21.82;36.04;95075.13;5030541;28;20281;-73
2022/05/05 11:56:18;;;;;;;3.22;2.08;;;;;;;21.42;37.86;95069.81;5030470;28;20686;-75
2022/05/05 12:01:40;;;;;;;2.42;1.80;;;;;;;22.08;36.26;95035.41;5029693;28;20948;-77
2022/05/05 12:04:10;;;;;;;2.22;1.77;;;;;;;21.68;35.94;95049.44;5018075;28;20283;-74
2022/05/05 12:06:38;;;;;;;2.97;1.85;;;;;;;21.44;35.89;95056.44;5030112;28;20266;-79
2022/05/05 12:09:07;;;;;;;2.67;1.88;;;;;;;21.41;36.82;95049.72;5030665;28;20205;-77
2022/05/05 12:11:35;;;;;;;1.60;1.45;;;;;;;21.71;34.67;95060.50;5030052;28;20236;-75
2022/05/05 12:14:04;;;;;;;2.55;1.60;;;;;;;22.00;35.76;95046.84;5030604;28;20227;-76
2022/05/05 12:16:34;;;;;;;2.55;1.92;;;;;;;21.21;37.14;95049.22;5030158;28;20217;-75
2022/05/05 12:19:01;;;;;;;2.60;1.60;;;;;;;21.36;38.47;95054.81;5030319;28;20204;-76
2022/05/05 12:21:29;;;;;;;2.40;1.60;;;;;;;21.28;37.65;95054.78;5030147;28;20216;-71
2022/05/05 12:23:59;;;;;;;1.67;1.40;;;;;;;20.98;37.54;95067.16;5032881;28;20208;-76